EXS49HP EGBB-LIPX
Flight info
| Callsign | EXS49HP |
|---|---|
| Flight time | 1h 48m |
| Altitude | 37000 |
| Route | COWLY L612 MID UL612 OGULO DCT OKASI DCT OKEKO DCT MOU DCT MADIV DCT MOKIP DCT TUFTA DCT GEVEA DCT ORSUD DCT BIBAN DCT SRN DCT TZO |
| Aircraft | B738/M-SDE2E3FGHIRWXY/LB1 |
Departure
| Time | 2026-04-29 14:30 |
|---|---|
| Airport | Birmingham Airport (EGBB) |
Arrival
| Time | 2026-04-29 16:18 |
|---|---|
| Airport | Verona Villafranca Valerio Catullo Airport (LIPX) |
| Time | Latitude | Longitude | Altitude | Speed | Heading |
|---|---|---|---|---|---|
| 2026-04-29 14:15 | 52.45060 | -1.73267 | 322 ft | 0 kts | 326° |
| 2026-04-29 14:18 | 52.45050 | -1.73256 | 321 ft | 4 kts | 322° |
| 2026-04-29 14:18 | 52.45032 | -1.73225 | 321 ft | 4 kts | 291° |
| 2026-04-29 14:18 | 52.45029 | -1.73198 | 319 ft | 0 kts | 262° |
| 2026-04-29 14:19 | 52.45018 | -1.73224 | 320 ft | 4 kts | 229° |
| 2026-04-29 14:19 | 52.45013 | -1.73238 | 322 ft | 0 kts | 236° |
| 2026-04-29 14:21 | 52.45011 | -1.73242 | 322 ft | 2 kts | 236° |
| 2026-04-29 14:21 | 52.44986 | -1.73302 | 322 ft | 10 kts | 236° |
| 2026-04-29 14:21 | 52.44946 | -1.73399 | 322 ft | 10 kts | 235° |
| 2026-04-29 14:21 | 52.44906 | -1.73497 | 322 ft | 10 kts | 240° |
| 2026-04-29 14:22 | 52.44909 | -1.73599 | 321 ft | 9 kts | 306° |
| 2026-04-29 14:22 | 52.44956 | -1.73657 | 322 ft | 8 kts | 326° |
| 2026-04-29 14:22 | 52.45002 | -1.73708 | 322 ft | 8 kts | 325° |
| 2026-04-29 14:22 | 52.45049 | -1.73749 | 322 ft | 7 kts | 343° |
| 2026-04-29 14:23 | 52.45103 | -1.73779 | 322 ft | 10 kts | 330° |
| 2026-04-29 14:23 | 52.45177 | -1.73860 | 322 ft | 14 kts | 325° |
| 2026-04-29 14:23 | 52.45253 | -1.73946 | 322 ft | 13 kts | 326° |
| 2026-04-29 14:23 | 52.45314 | -1.74048 | 322 ft | 13 kts | 297° |
| 2026-04-29 14:24 | 52.45353 | -1.74176 | 322 ft | 12 kts | 297° |
| 2026-04-29 14:24 | 52.45391 | -1.74300 | 321 ft | 12 kts | 297° |
| 2026-04-29 14:24 | 52.45429 | -1.74421 | 322 ft | 12 kts | 297° |
| 2026-04-29 14:24 | 52.45464 | -1.74538 | 321 ft | 11 kts | 297° |
| 2026-04-29 14:25 | 52.45521 | -1.74624 | 322 ft | 11 kts | 326° |
| 2026-04-29 14:25 | 52.45598 | -1.74710 | 318 ft | 18 kts | 326° |
| 2026-04-29 14:25 | 52.45734 | -1.74860 | 309 ft | 27 kts | 323° |
| 2026-04-29 14:25 | 52.45890 | -1.75034 | 305 ft | 27 kts | 326° |
| 2026-04-29 14:26 | 52.46039 | -1.75200 | 304 ft | 25 kts | 326° |
| 2026-04-29 14:26 | 52.46178 | -1.75354 | 303 ft | 23 kts | 325° |
| 2026-04-29 14:26 | 52.46307 | -1.75498 | 303 ft | 22 kts | 326° |
| 2026-04-29 14:26 | 52.46429 | -1.75633 | 300 ft | 21 kts | 326° |
| 2026-04-29 14:27 | 52.46549 | -1.75767 | 303 ft | 20 kts | 325° |
| 2026-04-29 14:27 | 52.46624 | -1.75853 | 306 ft | 10 kts | 317° |
| 2026-04-29 14:27 | 52.46617 | -1.75960 | 306 ft | 11 kts | 235° |
| 2026-04-29 14:28 | 52.46520 | -1.76062 | 307 ft | 2 kts | 146° |
| 2026-04-29 14:28 | 52.46516 | -1.76058 | 307 ft | 0 kts | 145° |
| 2026-04-29 14:29 | 52.46507 | -1.76048 | 308 ft | 12 kts | 145° |
| 2026-04-29 14:29 | 52.46253 | -1.75765 | 307 ft | 76 kts | 146° |
| 2026-04-29 14:29 | 52.45664 | -1.75105 | 322 ft | 124 kts | 145° |
| 2026-04-29 14:29 | 52.44829 | -1.74197 | 394 ft | 156 kts | 147° |
| 2026-04-29 14:30 | 52.43906 | -1.73231 | 1019 ft | 154 kts | 137° |
| 2026-04-29 14:30 | 52.43043 | -1.72276 | 1774 ft | 148 kts | 136° |
| 2026-04-29 14:30 | 52.42150 | -1.71249 | 2138 ft | 171 kts | 136° |
| 2026-04-29 14:30 | 52.41079 | -1.70098 | 2351 ft | 198 kts | 148° |
| 2026-04-29 14:31 | 52.39685 | -1.69469 | 2703 ft | 213 kts | 160° |
| 2026-04-29 14:31 | 52.38241 | -1.68840 | 3126 ft | 218 kts | 150° |
| 2026-04-29 14:31 | 52.36838 | -1.67708 | 3327 ft | 239 kts | 146° |
| 2026-04-29 14:31 | 52.35330 | -1.66410 | 3796 ft | 249 kts | 146° |
| 2026-04-29 14:32 | 52.33798 | -1.65111 | 4649 ft | 244 kts | 146° |
| 2026-04-29 14:32 | 52.32317 | -1.63871 | 5540 ft | 240 kts | 147° |
| 2026-04-29 14:32 | 52.30806 | -1.62604 | 6082 ft | 248 kts | 148° |
| 2026-04-29 14:32 | 52.29253 | -1.61307 | 6800 ft | 252 kts | 148° |
| 2026-04-29 14:33 | 52.27682 | -1.60002 | 7486 ft | 254 kts | 149° |
| 2026-04-29 14:33 | 52.26102 | -1.58695 | 8224 ft | 255 kts | 149° |
| 2026-04-29 14:33 | 52.24518 | -1.57363 | 8972 ft | 257 kts | 147° |
| 2026-04-29 14:33 | 52.22959 | -1.55978 | 9679 ft | 261 kts | 148° |
| 2026-04-29 14:34 | 52.21347 | -1.54528 | 10332 ft | 267 kts | 148° |
| 2026-04-29 14:34 | 52.19706 | -1.53052 | 10838 ft | 278 kts | 148° |
| 2026-04-29 14:34 | 52.17942 | -1.51462 | 11002 ft | 301 kts | 148° |
| 2026-04-29 14:34 | 52.16058 | -1.49770 | 11329 ft | 316 kts | 148° |
| 2026-04-29 14:35 | 52.14099 | -1.48020 | 11893 ft | 322 kts | 148° |
| 2026-04-29 14:35 | 52.12144 | -1.46284 | 12714 ft | 322 kts | 148° |
| 2026-04-29 14:35 | 52.10158 | -1.44522 | 13346 ft | 328 kts | 148° |
| 2026-04-29 14:35 | 52.08145 | -1.42742 | 14077 ft | 331 kts | 149° |
| 2026-04-29 14:36 | 52.06141 | -1.40968 | 14740 ft | 334 kts | 148° |
| 2026-04-29 14:36 | 52.04091 | -1.39152 | 15409 ft | 337 kts | 148° |
| 2026-04-29 14:36 | 52.02022 | -1.37322 | 16039 ft | 340 kts | 148° |
| 2026-04-29 14:36 | 51.99936 | -1.35478 | 16755 ft | 342 kts | 148° |
| 2026-04-29 14:37 | 51.97835 | -1.33624 | 17453 ft | 345 kts | 148° |
| 2026-04-29 14:37 | 51.95716 | -1.31756 | 18139 ft | 348 kts | 148° |
| 2026-04-29 14:37 | 51.93578 | -1.29873 | 18778 ft | 352 kts | 148° |
| 2026-04-29 14:37 | 51.91417 | -1.27972 | 19349 ft | 355 kts | 149° |
| 2026-04-29 14:38 | 51.89233 | -1.26053 | 19908 ft | 359 kts | 149° |
| 2026-04-29 14:38 | 51.87028 | -1.24118 | 20459 ft | 363 kts | 149° |
| 2026-04-29 14:38 | 51.84829 | -1.22190 | 20972 ft | 367 kts | 149° |
| 2026-04-29 14:38 | 51.82574 | -1.20216 | 21511 ft | 370 kts | 149° |
| 2026-04-29 14:39 | 51.80299 | -1.18227 | 22059 ft | 373 kts | 149° |
| 2026-04-29 14:39 | 51.77992 | -1.16211 | 22425 ft | 382 kts | 150° |
| 2026-04-29 14:39 | 51.75642 | -1.14161 | 22941 ft | 384 kts | 150° |
| 2026-04-29 14:39 | 51.73299 | -1.12121 | 23652 ft | 382 kts | 150° |
| 2026-04-29 14:40 | 51.70942 | -1.10070 | 24069 ft | 387 kts | 150° |
| 2026-04-29 14:40 | 51.68574 | -1.08011 | 24557 ft | 388 kts | 150° |
| 2026-04-29 14:40 | 51.66212 | -1.05960 | 24838 ft | 394 kts | 150° |
| 2026-04-29 14:40 | 51.63792 | -1.03861 | 25235 ft | 398 kts | 151° |
| 2026-04-29 14:41 | 51.61335 | -1.01732 | 25538 ft | 403 kts | 151° |
| 2026-04-29 14:41 | 51.58892 | -0.99618 | 26175 ft | 399 kts | 152° |
| 2026-04-29 14:41 | 51.56432 | -0.97493 | 26479 ft | 404 kts | 151° |
| 2026-04-29 14:41 | 51.53962 | -0.95361 | 27012 ft | 402 kts | 151° |
| 2026-04-29 14:42 | 51.51492 | -0.93230 | 27402 ft | 405 kts | 152° |
| 2026-04-29 14:42 | 51.48999 | -0.91082 | 27777 ft | 407 kts | 152° |
| 2026-04-29 14:42 | 51.46496 | -0.88930 | 28125 ft | 410 kts | 152° |
| 2026-04-29 14:42 | 51.44066 | -0.86613 | 28434 ft | 414 kts | 146° |
| 2026-04-29 14:43 | 51.41721 | -0.83902 | 28785 ft | 417 kts | 144° |
| 2026-04-29 14:43 | 51.39394 | -0.81120 | 29140 ft | 419 kts | 144° |
| 2026-04-29 14:43 | 51.37061 | -0.78311 | 29473 ft | 421 kts | 144° |
| 2026-04-29 14:43 | 51.34713 | -0.75492 | 29791 ft | 424 kts | 145° |
| 2026-04-29 14:44 | 51.32343 | -0.72665 | 30114 ft | 426 kts | 144° |
| 2026-04-29 14:44 | 51.30766 | -0.70795 | 30322 ft | 427 kts | 144° |
| 2026-04-29 14:46 | 51.28793 | -0.68463 | 30564 ft | 428 kts | 144° |
| 2026-04-29 14:46 | 51.26391 | -0.65636 | 30850 ft | 430 kts | 144° |
| 2026-04-29 14:47 | 51.23983 | -0.62810 | 31136 ft | 431 kts | 144° |
| 2026-04-29 14:47 | 51.21564 | -0.59977 | 31433 ft | 433 kts | 144° |
| 2026-04-29 14:47 | 51.19147 | -0.57154 | 31457 ft | 440 kts | 144° |
| 2026-04-29 14:47 | 51.16704 | -0.54305 | 32174 ft | 429 kts | 144° |
| 2026-04-29 14:48 | 51.14302 | -0.51505 | 32657 ft | 427 kts | 145° |
| 2026-04-29 14:48 | 51.11898 | -0.48708 | 32812 ft | 431 kts | 144° |
| 2026-04-29 14:48 | 51.09454 | -0.45867 | 32855 ft | 438 kts | 144° |
| 2026-04-29 14:48 | 51.06975 | -0.42992 | 33022 ft | 442 kts | 144° |
| 2026-04-29 14:49 | 51.04500 | -0.40124 | 33435 ft | 439 kts | 145° |
| 2026-04-29 14:49 | 51.02052 | -0.37290 | 34027 ft | 433 kts | 145° |
| 2026-04-29 14:49 | 50.99650 | -0.34511 | 34222 ft | 435 kts | 144° |
| 2026-04-29 14:49 | 50.97192 | -0.31674 | 34326 ft | 439 kts | 145° |
| 2026-04-29 14:50 | 50.94748 | -0.28857 | 34881 ft | 429 kts | 145° |
| 2026-04-29 14:50 | 50.92362 | -0.26107 | 35531 ft | 419 kts | 145° |
| 2026-04-29 14:50 | 50.90010 | -0.23400 | 35905 ft | 417 kts | 145° |
| 2026-04-29 14:50 | 50.87651 | -0.20692 | 36022 ft | 420 kts | 145° |
| 2026-04-29 14:51 | 50.85285 | -0.17980 | 36315 ft | 419 kts | 145° |
| 2026-04-29 14:51 | 50.82935 | -0.15288 | 36637 ft | 417 kts | 145° |
| 2026-04-29 14:51 | 50.80571 | -0.12583 | 36640 ft | 423 kts | 145° |
| 2026-04-29 14:52 | 50.75790 | -0.07127 | 36845 ft | 428 kts | 145° |
| 2026-04-29 14:52 | 50.73382 | -0.04383 | 37185 ft | 425 kts | 145° |
| 2026-04-29 14:52 | 50.70968 | -0.01635 | 37160 ft | 429 kts | 145° |
| 2026-04-29 14:53 | 50.66113 | 0.03879 | 37167 ft | 430 kts | 144° |
| 2026-04-29 14:53 | 50.61279 | 0.09358 | 37180 ft | 427 kts | 145° |
| 2026-04-29 14:54 | 50.56464 | 0.14799 | 37174 ft | 425 kts | 146° |
| 2026-04-29 14:54 | 50.51668 | 0.20205 | 37163 ft | 423 kts | 145° |
| 2026-04-29 14:55 | 50.46916 | 0.25549 | 37164 ft | 423 kts | 146° |
| 2026-04-29 14:55 | 50.42128 | 0.30918 | 37157 ft | 424 kts | 145° |
| 2026-04-29 14:56 | 50.37320 | 0.36295 | 37158 ft | 425 kts | 147° |
| 2026-04-29 14:56 | 50.32507 | 0.41663 | 37142 ft | 425 kts | 147° |
| 2026-04-29 14:57 | 50.27724 | 0.46988 | 37101 ft | 425 kts | 146° |
| 2026-04-29 14:57 | 50.22876 | 0.52367 | 37133 ft | 432 kts | 146° |
| 2026-04-29 14:58 | 50.17928 | 0.57849 | 37144 ft | 439 kts | 146° |
| 2026-04-29 14:58 | 50.12929 | 0.63370 | 37127 ft | 439 kts | 146° |
| 2026-04-29 14:59 | 50.07995 | 0.68809 | 37114 ft | 431 kts | 146° |
| 2026-04-29 14:59 | 50.03126 | 0.74158 | 37118 ft | 432 kts | 147° |
| 2026-04-29 15:00 | 49.98217 | 0.79534 | 37114 ft | 432 kts | 147° |
| 2026-04-29 15:00 | 49.93302 | 0.84908 | 37117 ft | 432 kts | 147° |
| 2026-04-29 15:01 | 49.88393 | 0.90263 | 37122 ft | 431 kts | 147° |
| 2026-04-29 15:01 | 49.83506 | 0.95579 | 37102 ft | 432 kts | 147° |
| 2026-04-29 15:02 | 49.78571 | 1.00933 | 37107 ft | 434 kts | 147° |
| 2026-04-29 15:02 | 49.73613 | 1.06296 | 37109 ft | 436 kts | 148° |
| 2026-04-29 15:03 | 49.68622 | 1.11683 | 37111 ft | 439 kts | 148° |
| 2026-04-29 15:03 | 49.63637 | 1.17050 | 37110 ft | 441 kts | 148° |
| 2026-04-29 15:04 | 49.58597 | 1.22463 | 37109 ft | 442 kts | 148° |
| 2026-04-29 15:04 | 49.53539 | 1.27882 | 37103 ft | 443 kts | 148° |
| 2026-04-29 15:05 | 49.48476 | 1.33292 | 37109 ft | 443 kts | 149° |
| 2026-04-29 15:05 | 49.43443 | 1.38654 | 37100 ft | 443 kts | 148° |
| 2026-04-29 15:06 | 49.38368 | 1.44050 | 37110 ft | 445 kts | 147° |
| 2026-04-29 15:06 | 49.33271 | 1.49456 | 37097 ft | 446 kts | 147° |
| 2026-04-29 15:07 | 49.28150 | 1.54871 | 37101 ft | 447 kts | 148° |
| 2026-04-29 15:07 | 49.23023 | 1.60276 | 37087 ft | 448 kts | 148° |
| 2026-04-29 15:08 | 49.17928 | 1.65641 | 37084 ft | 448 kts | 147° |
| 2026-04-29 15:08 | 49.12794 | 1.71029 | 37080 ft | 447 kts | 148° |
| 2026-04-29 15:09 | 49.07662 | 1.76398 | 37084 ft | 447 kts | 149° |
| 2026-04-29 15:09 | 49.02535 | 1.81751 | 37074 ft | 446 kts | 149° |
| 2026-04-29 15:10 | 48.97444 | 1.87057 | 37085 ft | 447 kts | 148° |
| 2026-04-29 15:10 | 48.92311 | 1.92389 | 37077 ft | 447 kts | 149° |
| 2026-04-29 15:11 | 48.87168 | 1.97715 | 37078 ft | 448 kts | 149° |
| 2026-04-29 15:11 | 48.82012 | 2.03045 | 37078 ft | 449 kts | 149° |
| 2026-04-29 15:12 | 48.76883 | 2.08334 | 37079 ft | 449 kts | 149° |
| 2026-04-29 15:12 | 48.71704 | 2.13662 | 37084 ft | 450 kts | 148° |
| 2026-04-29 15:13 | 48.66518 | 2.18978 | 37060 ft | 451 kts | 148° |
| 2026-04-29 15:13 | 48.61320 | 2.24297 | 37084 ft | 451 kts | 149° |
| 2026-04-29 15:14 | 48.56113 | 2.29611 | 37069 ft | 452 kts | 149° |
| 2026-04-29 15:14 | 48.50927 | 2.34891 | 37057 ft | 453 kts | 149° |
| 2026-04-29 15:15 | 48.45698 | 2.40202 | 37062 ft | 454 kts | 148° |
| 2026-04-29 15:15 | 48.40459 | 2.45509 | 37044 ft | 453 kts | 149° |
| 2026-04-29 15:16 | 48.35232 | 2.50790 | 37044 ft | 452 kts | 149° |
| 2026-04-29 15:16 | 48.30020 | 2.56043 | 37045 ft | 450 kts | 149° |
| 2026-04-29 15:17 | 48.24861 | 2.61230 | 37042 ft | 449 kts | 149° |
| 2026-04-29 15:17 | 48.19674 | 2.66433 | 37050 ft | 448 kts | 149° |
| 2026-04-29 15:18 | 48.14491 | 2.71620 | 37040 ft | 448 kts | 149° |
| 2026-04-29 15:18 | 48.09311 | 2.76796 | 37038 ft | 448 kts | 148° |
| 2026-04-29 15:19 | 48.04648 | 2.82943 | 37051 ft | 452 kts | 138° |
| 2026-04-29 15:19 | 48.00216 | 2.89613 | 37040 ft | 452 kts | 137° |
| 2026-04-29 15:20 | 47.95536 | 2.95807 | 37035 ft | 446 kts | 152° |
| 2026-04-29 15:20 | 47.89899 | 2.99391 | 37039 ft | 439 kts | 168° |
| 2026-04-29 15:21 | 47.83973 | 3.01558 | 37033 ft | 439 kts | 171° |
| 2026-04-29 15:21 | 47.78044 | 3.03559 | 37034 ft | 441 kts | 171° |
| 2026-04-29 15:22 | 47.72062 | 3.05651 | 37033 ft | 442 kts | 171° |
| 2026-04-29 15:22 | 47.66072 | 3.07784 | 37021 ft | 443 kts | 171° |
| 2026-04-29 15:23 | 47.60084 | 3.09912 | 37026 ft | 442 kts | 171° |
| 2026-04-29 15:23 | 47.54315 | 3.13095 | 37027 ft | 450 kts | 150° |
| 2026-04-29 15:23 | 47.51883 | 3.15948 | 37021 ft | 456 kts | 138° |
| 2026-04-29 15:24 | 47.49823 | 3.19535 | 37034 ft | 458 kts | 131° |
| 2026-04-29 15:24 | 47.45923 | 3.26981 | 37017 ft | 458 kts | 131° |
| 2026-04-29 15:25 | 47.42024 | 3.34400 | 37014 ft | 457 kts | 131° |
| 2026-04-29 15:25 | 47.38093 | 3.41756 | 37025 ft | 456 kts | 131° |
| 2026-04-29 15:26 | 47.34169 | 3.49031 | 37016 ft | 456 kts | 131° |
| 2026-04-29 15:26 | 47.30211 | 3.56337 | 37019 ft | 456 kts | 132° |
| 2026-04-29 15:27 | 47.26247 | 3.63636 | 37013 ft | 456 kts | 132° |
| 2026-04-29 15:27 | 47.22279 | 3.70929 | 37019 ft | 456 kts | 132° |
| 2026-04-29 15:28 | 47.18331 | 3.78164 | 37014 ft | 457 kts | 132° |
| 2026-04-29 15:28 | 47.14350 | 3.85441 | 37015 ft | 457 kts | 132° |
| 2026-04-29 15:29 | 47.10357 | 3.92721 | 37007 ft | 458 kts | 132° |
| 2026-04-29 15:30 | 47.02385 | 4.07198 | 37001 ft | 458 kts | 132° |
| 2026-04-29 15:30 | 46.98373 | 4.14453 | 37008 ft | 458 kts | 132° |
| 2026-04-29 15:31 | 46.94357 | 4.21699 | 37006 ft | 458 kts | 132° |
| 2026-04-29 15:31 | 46.90333 | 4.28939 | 37021 ft | 459 kts | 132° |
| 2026-04-29 15:32 | 46.86332 | 4.36119 | 37014 ft | 459 kts | 132° |
| 2026-04-29 15:32 | 46.82296 | 4.43343 | 37014 ft | 459 kts | 132° |
| 2026-04-29 15:33 | 46.78256 | 4.50555 | 37015 ft | 459 kts | 132° |
| 2026-04-29 15:33 | 46.74210 | 4.57758 | 37032 ft | 459 kts | 132° |
| 2026-04-29 15:34 | 46.70183 | 4.64910 | 37020 ft | 460 kts | 132° |
| 2026-04-29 15:34 | 46.66120 | 4.72106 | 37018 ft | 460 kts | 132° |
| 2026-04-29 15:35 | 46.62050 | 4.79296 | 37019 ft | 460 kts | 132° |
| 2026-04-29 15:35 | 46.57974 | 4.86480 | 37018 ft | 461 kts | 132° |
| 2026-04-29 15:36 | 46.53886 | 4.93665 | 37022 ft | 462 kts | 132° |
| 2026-04-29 15:36 | 46.49812 | 5.00812 | 37026 ft | 463 kts | 132° |
| 2026-04-29 15:37 | 46.45801 | 5.08135 | 37015 ft | 466 kts | 124° |
| 2026-04-29 15:37 | 46.43106 | 5.16686 | 37035 ft | 469 kts | 109° |
| 2026-04-29 15:38 | 46.41132 | 5.25716 | 37023 ft | 470 kts | 108° |
| 2026-04-29 15:38 | 46.39168 | 5.34700 | 37031 ft | 471 kts | 109° |
| 2026-04-29 15:39 | 46.37143 | 5.43722 | 37026 ft | 472 kts | 109° |
| 2026-04-29 15:39 | 46.35087 | 5.52742 | 37042 ft | 472 kts | 109° |
| 2026-04-29 15:40 | 46.33021 | 5.61748 | 37055 ft | 472 kts | 109° |
| 2026-04-29 15:40 | 46.30947 | 5.70759 | 37063 ft | 472 kts | 109° |
| 2026-04-29 15:41 | 46.28881 | 5.79702 | 37073 ft | 472 kts | 109° |
| 2026-04-29 15:41 | 46.26794 | 5.88703 | 37072 ft | 472 kts | 109° |
| 2026-04-29 15:42 | 46.24696 | 5.97689 | 37082 ft | 473 kts | 109° |
| 2026-04-29 15:42 | 46.22590 | 6.06704 | 37087 ft | 473 kts | 109° |
| 2026-04-29 15:43 | 46.20481 | 6.15696 | 37073 ft | 473 kts | 109° |
| 2026-04-29 15:43 | 46.18377 | 6.24622 | 37077 ft | 473 kts | 109° |
| 2026-04-29 15:44 | 46.16252 | 6.33597 | 37067 ft | 473 kts | 109° |
| 2026-04-29 15:44 | 46.14123 | 6.42556 | 37068 ft | 472 kts | 109° |
| 2026-04-29 15:45 | 46.11985 | 6.51511 | 37074 ft | 472 kts | 109° |
| 2026-04-29 15:45 | 46.09856 | 6.60395 | 37082 ft | 472 kts | 109° |
| 2026-04-29 15:46 | 46.07709 | 6.69322 | 37089 ft | 472 kts | 109° |
| 2026-04-29 15:46 | 46.05551 | 6.78252 | 37101 ft | 472 kts | 109° |
| 2026-04-29 15:47 | 46.03384 | 6.87191 | 37102 ft | 473 kts | 109° |
| 2026-04-29 15:47 | 46.01208 | 6.96128 | 37098 ft | 473 kts | 109° |
| 2026-04-29 15:48 | 45.99038 | 7.05012 | 37095 ft | 474 kts | 109° |
| 2026-04-29 15:48 | 45.96846 | 7.13947 | 37127 ft | 474 kts | 109° |
| 2026-04-29 15:49 | 45.94875 | 7.22958 | 37117 ft | 471 kts | 103° |
| 2026-04-29 15:49 | 45.93430 | 7.32087 | 37068 ft | 472 kts | 101° |
| 2026-04-29 15:50 | 45.92024 | 7.41324 | 36875 ft | 477 kts | 102° |
| 2026-04-29 15:50 | 45.91295 | 7.45972 | 36589 ft | 477 kts | 102° |
| 2026-04-29 15:50 | 45.90555 | 7.50588 | 36396 ft | 473 kts | 102° |
| 2026-04-29 15:50 | 45.89809 | 7.55177 | 36140 ft | 471 kts | 102° |
| 2026-04-29 15:51 | 45.89057 | 7.59751 | 35865 ft | 470 kts | 102° |
| 2026-04-29 15:51 | 45.88304 | 7.64318 | 35643 ft | 472 kts | 102° |
| 2026-04-29 15:51 | 45.87542 | 7.68928 | 35400 ft | 476 kts | 102° |
| 2026-04-29 15:51 | 45.86776 | 7.73549 | 35141 ft | 476 kts | 102° |
| 2026-04-29 15:52 | 45.86008 | 7.78171 | 34912 ft | 476 kts | 102° |
| 2026-04-29 15:52 | 45.85241 | 7.82779 | 34654 ft | 476 kts | 102° |
| 2026-04-29 15:52 | 45.84482 | 7.87329 | 34281 ft | 474 kts | 102° |
| 2026-04-29 15:52 | 45.83713 | 7.91932 | 33634 ft | 475 kts | 103° |
| 2026-04-29 15:53 | 45.82942 | 7.96531 | 33007 ft | 475 kts | 103° |
| 2026-04-29 15:53 | 45.82171 | 8.01116 | 32611 ft | 469 kts | 103° |
| 2026-04-29 15:53 | 45.81407 | 8.05649 | 32150 ft | 466 kts | 103° |
| 2026-04-29 15:53 | 45.80650 | 8.10139 | 31707 ft | 462 kts | 103° |
| 2026-04-29 15:54 | 45.79896 | 8.14596 | 31292 ft | 458 kts | 103° |
| 2026-04-29 15:54 | 45.79146 | 8.19008 | 30857 ft | 455 kts | 103° |
| 2026-04-29 15:54 | 45.78407 | 8.23342 | 30431 ft | 452 kts | 103° |
| 2026-04-29 15:54 | 45.77663 | 8.27695 | 30008 ft | 449 kts | 103° |
| 2026-04-29 15:55 | 45.76922 | 8.32019 | 29536 ft | 445 kts | 103° |
| 2026-04-29 15:55 | 45.76186 | 8.36308 | 29068 ft | 441 kts | 103° |
| 2026-04-29 15:55 | 45.75456 | 8.40554 | 28641 ft | 437 kts | 103° |
| 2026-04-29 15:55 | 45.74730 | 8.44761 | 28206 ft | 433 kts | 103° |
| 2026-04-29 15:56 | 45.74010 | 8.48930 | 27774 ft | 430 kts | 103° |
| 2026-04-29 15:56 | 45.73294 | 8.53061 | 27351 ft | 426 kts | 103° |
| 2026-04-29 15:56 | 45.72582 | 8.57165 | 26931 ft | 423 kts | 103° |
| 2026-04-29 15:56 | 45.71874 | 8.61234 | 26516 ft | 420 kts | 103° |
| 2026-04-29 15:57 | 45.71169 | 8.65276 | 26111 ft | 417 kts | 103° |
| 2026-04-29 15:57 | 45.70704 | 8.67940 | 25835 ft | 416 kts | 103° |
| 2026-04-29 15:57 | 45.70003 | 8.71942 | 25399 ft | 414 kts | 103° |
| 2026-04-29 15:57 | 45.69079 | 8.77209 | 24862 ft | 411 kts | 103° |
| 2026-04-29 15:58 | 45.68384 | 8.81158 | 24457 ft | 409 kts | 103° |
| 2026-04-29 15:58 | 45.67692 | 8.85083 | 24058 ft | 407 kts | 103° |
| 2026-04-29 15:58 | 45.67000 | 8.88997 | 23641 ft | 405 kts | 103° |
| 2026-04-29 15:58 | 45.66544 | 8.91576 | 23334 ft | 404 kts | 103° |
| 2026-04-29 15:59 | 45.65855 | 8.95459 | 22883 ft | 401 kts | 103° |
| 2026-04-29 15:59 | 45.65170 | 8.99310 | 22462 ft | 399 kts | 103° |
| 2026-04-29 15:59 | 45.64489 | 9.03132 | 22067 ft | 395 kts | 103° |
| 2026-04-29 15:59 | 45.63812 | 9.06925 | 21665 ft | 393 kts | 103° |
| 2026-04-29 16:00 | 45.62921 | 9.11906 | 21128 ft | 389 kts | 103° |
| 2026-04-29 16:00 | 45.62469 | 9.14430 | 20861 ft | 387 kts | 103° |
| 2026-04-29 16:00 | 45.61802 | 9.18146 | 20473 ft | 385 kts | 103° |
| 2026-04-29 16:00 | 45.61146 | 9.21789 | 20085 ft | 382 kts | 103° |
| 2026-04-29 16:01 | 45.60486 | 9.25452 | 19709 ft | 380 kts | 103° |
| 2026-04-29 16:01 | 45.59827 | 9.29098 | 19326 ft | 378 kts | 103° |
| 2026-04-29 16:01 | 45.59172 | 9.32720 | 18941 ft | 376 kts | 103° |
| 2026-04-29 16:01 | 45.58518 | 9.36326 | 18555 ft | 374 kts | 103° |
| 2026-04-29 16:02 | 45.57865 | 9.39922 | 18218 ft | 373 kts | 103° |
| 2026-04-29 16:02 | 45.57216 | 9.43491 | 17784 ft | 371 kts | 103° |
| 2026-04-29 16:02 | 45.56569 | 9.47036 | 17372 ft | 368 kts | 103° |
| 2026-04-29 16:02 | 45.55904 | 9.50551 | 16985 ft | 366 kts | 107° |
| 2026-04-29 16:03 | 45.54965 | 9.53910 | 16605 ft | 363 kts | 114° |
| 2026-04-29 16:03 | 45.53904 | 9.57107 | 16224 ft | 360 kts | 115° |
| 2026-04-29 16:03 | 45.52814 | 9.60311 | 15858 ft | 358 kts | 115° |
| 2026-04-29 16:03 | 45.51734 | 9.63492 | 15491 ft | 355 kts | 115° |
| 2026-04-29 16:04 | 45.50668 | 9.66658 | 15122 ft | 353 kts | 115° |
| 2026-04-29 16:04 | 45.49617 | 9.69805 | 14751 ft | 351 kts | 115° |
| 2026-04-29 16:04 | 45.48576 | 9.72936 | 14387 ft | 348 kts | 115° |
| 2026-04-29 16:04 | 45.47544 | 9.76048 | 14019 ft | 347 kts | 115° |
| 2026-04-29 16:05 | 45.46518 | 9.79145 | 13599 ft | 345 kts | 115° |
| 2026-04-29 16:05 | 45.45495 | 9.82230 | 13195 ft | 343 kts | 115° |
| 2026-04-29 16:05 | 45.44492 | 9.85252 | 12825 ft | 341 kts | 115° |
| 2026-04-29 16:05 | 45.43484 | 9.88287 | 12452 ft | 338 kts | 115° |
| 2026-04-29 16:06 | 45.42480 | 9.91309 | 12082 ft | 336 kts | 115° |
| 2026-04-29 16:06 | 45.41482 | 9.94307 | 11711 ft | 334 kts | 115° |
| 2026-04-29 16:06 | 45.40491 | 9.97277 | 11353 ft | 332 kts | 115° |
| 2026-04-29 16:06 | 45.39502 | 10.00238 | 10998 ft | 330 kts | 115° |
| 2026-04-29 16:07 | 45.38518 | 10.03182 | 10679 ft | 327 kts | 116° |
| 2026-04-29 16:07 | 45.37545 | 10.06091 | 10364 ft | 325 kts | 116° |
| 2026-04-29 16:07 | 45.36578 | 10.08979 | 10054 ft | 322 kts | 117° |
| 2026-04-29 16:07 | 45.35641 | 10.11772 | 9990 ft | 311 kts | 115° |
| 2026-04-29 16:08 | 45.34732 | 10.14487 | 9676 ft | 303 kts | 115° |
| 2026-04-29 16:08 | 45.33821 | 10.17203 | 9184 ft | 301 kts | 116° |
| 2026-04-29 16:08 | 45.32927 | 10.19861 | 8815 ft | 295 kts | 116° |
| 2026-04-29 16:08 | 45.32051 | 10.22464 | 8516 ft | 290 kts | 116° |
| 2026-04-29 16:09 | 45.31293 | 10.25123 | 8228 ft | 291 kts | 107° |
| 2026-04-29 16:09 | 45.30806 | 10.27905 | 7951 ft | 290 kts | 103° |
| 2026-04-29 16:09 | 45.30387 | 10.30707 | 7660 ft | 290 kts | 102° |
| 2026-04-29 16:09 | 45.29974 | 10.33475 | 7410 ft | 290 kts | 102° |
| 2026-04-29 16:10 | 45.29548 | 10.36263 | 7120 ft | 288 kts | 103° |
| 2026-04-29 16:10 | 45.29112 | 10.39033 | 6838 ft | 287 kts | 103° |
| 2026-04-29 16:10 | 45.28670 | 10.41792 | 6558 ft | 286 kts | 103° |
| 2026-04-29 16:10 | 45.28223 | 10.44543 | 6204 ft | 286 kts | 103° |
| 2026-04-29 16:11 | 45.27775 | 10.47282 | 5898 ft | 281 kts | 103° |
| 2026-04-29 16:11 | 45.27339 | 10.49932 | 5625 ft | 269 kts | 103° |
| 2026-04-29 16:11 | 45.26926 | 10.52437 | 5365 ft | 253 kts | 103° |
| 2026-04-29 16:11 | 45.26534 | 10.54802 | 5113 ft | 241 kts | 103° |
| 2026-04-29 16:12 | 45.26162 | 10.57051 | 4887 ft | 234 kts | 103° |
| 2026-04-29 16:12 | 45.25792 | 10.59264 | 4639 ft | 228 kts | 103° |
| 2026-04-29 16:12 | 45.25433 | 10.61416 | 4408 ft | 220 kts | 103° |
| 2026-04-29 16:12 | 45.25085 | 10.63505 | 4200 ft | 214 kts | 102° |
| 2026-04-29 16:13 | 45.24780 | 10.65534 | 3980 ft | 206 kts | 94° |
| 2026-04-29 16:13 | 45.25137 | 10.67429 | 3773 ft | 203 kts | 55° |
| 2026-04-29 16:13 | 45.26056 | 10.68928 | 3590 ft | 199 kts | 52° |
| 2026-04-29 16:13 | 45.26957 | 10.70370 | 3501 ft | 188 kts | 51° |
| 2026-04-29 16:14 | 45.27828 | 10.71686 | 3293 ft | 184 kts | 50° |
| 2026-04-29 16:14 | 45.28706 | 10.72976 | 3065 ft | 181 kts | 50° |
| 2026-04-29 16:14 | 45.29571 | 10.74242 | 2826 ft | 177 kts | 50° |
| 2026-04-29 16:14 | 45.30423 | 10.75487 | 2604 ft | 175 kts | 51° |
| 2026-04-29 16:15 | 45.31271 | 10.76728 | 2365 ft | 173 kts | 50° |
| 2026-04-29 16:15 | 45.32085 | 10.77919 | 2129 ft | 162 kts | 50° |
| 2026-04-29 16:15 | 45.32841 | 10.79022 | 1920 ft | 150 kts | 51° |
| 2026-04-29 16:15 | 45.33532 | 10.80033 | 1731 ft | 139 kts | 51° |
| 2026-04-29 16:16 | 45.34193 | 10.81003 | 1550 ft | 135 kts | 52° |
| 2026-04-29 16:16 | 45.34840 | 10.81981 | 1327 ft | 136 kts | 52° |
| 2026-04-29 16:16 | 45.35501 | 10.82940 | 1176 ft | 137 kts | 52° |
| 2026-04-29 16:16 | 45.36147 | 10.83900 | 1042 ft | 134 kts | 48° |
| 2026-04-29 16:17 | 45.36812 | 10.84836 | 835 ft | 136 kts | 51° |
| 2026-04-29 16:17 | 45.37481 | 10.85809 | 643 ft | 141 kts | 51° |
| 2026-04-29 16:17 | 45.38162 | 10.86803 | 432 ft | 138 kts | 49° |
| 2026-04-29 16:17 | 45.38830 | 10.87774 | 252 ft | 137 kts | 48° |
| 2026-04-29 16:18 | 45.39412 | 10.88622 | 236 ft | 92 kts | 45° |
| 2026-04-29 16:18 | 45.39709 | 10.89058 | 238 ft | 36 kts | 45° |
| 2026-04-29 16:18 | 45.39887 | 10.89315 | 239 ft | 34 kts | 44° |
| 2026-04-29 16:18 | 45.40037 | 10.89532 | 243 ft | 29 kts | 45° |
| 2026-04-29 16:19 | 45.40176 | 10.89733 | 246 ft | 28 kts | 46° |
| 2026-04-29 16:19 | 45.40280 | 10.89932 | 245 ft | 21 kts | 72° |
| 2026-04-29 16:19 | 45.40304 | 10.90090 | 243 ft | 11 kts | 74° |
| 2026-04-29 16:19 | 45.40326 | 10.90199 | 242 ft | 11 kts | 75° |
| 2026-04-29 16:20 | 45.40318 | 10.90294 | 241 ft | 9 kts | 133° |
| 2026-04-29 16:20 | 45.40278 | 10.90351 | 241 ft | 8 kts | 134° |
| 2026-04-29 16:20 | 45.40258 | 10.90409 | 241 ft | 7 kts | 77° |
| 2026-04-29 16:20 | 45.40287 | 10.90459 | 241 ft | 7 kts | 45° |
| 2026-04-29 16:21 | 45.40318 | 10.90505 | 241 ft | 6 kts | 46° |
| 2026-04-29 16:21 | 45.40331 | 10.90544 | 241 ft | 3 kts | 102° |
| 2026-04-29 16:21 | 45.40321 | 10.90565 | 241 ft | 3 kts | 130° |
| 2026-04-29 16:21 | 45.40308 | 10.90583 | 241 ft | 2 kts | 135° |
| 2026-04-29 16:22 | 45.40300 | 10.90594 | 241 ft | 1 kts | 134° |
| 2026-04-29 16:22 | 45.40300 | 10.90595 | 241 ft | 0 kts | 134° |
| 2026-04-29 16:34 | 45.40300 | 10.90594 | 241 ft | 0 kts | 135° |
| 2026-04-29 16:48 | 45.40316 | 10.90572 | 241 ft | 4 kts | 135° |
| 2026-04-29 16:48 | 45.40335 | 10.90550 | 241 ft | 4 kts | 175° |
| 2026-04-29 16:49 | 45.40354 | 10.90556 | 241 ft | 4 kts | 226° |
| 2026-04-29 16:49 | 45.40365 | 10.90573 | 241 ft | 0 kts | 225° |
| 2026-04-29 16:52 | 45.40362 | 10.90569 | 241 ft | 3 kts | 224° |
| 2026-04-29 16:52 | 45.40330 | 10.90521 | 241 ft | 8 kts | 227° |
| 2026-04-29 16:52 | 45.40289 | 10.90463 | 241 ft | 8 kts | 226° |
| 2026-04-29 16:52 | 45.40257 | 10.90402 | 241 ft | 8 kts | 260° |
| 2026-04-29 16:53 | 45.40286 | 10.90340 | 241 ft | 8 kts | 315° |
| 2026-04-29 16:53 | 45.40323 | 10.90288 | 241 ft | 7 kts | 315° |
| 2026-04-29 16:53 | 45.40330 | 10.90223 | 242 ft | 7 kts | 256° |
| 2026-04-29 16:53 | 45.40318 | 10.90154 | 242 ft | 8 kts | 255° |
| 2026-04-29 16:54 | 45.40298 | 10.90046 | 244 ft | 14 kts | 255° |
| 2026-04-29 16:54 | 45.40306 | 10.89924 | 246 ft | 11 kts | 312° |
| 2026-04-29 16:54 | 45.40356 | 10.89854 | 247 ft | 9 kts | 315° |
| 2026-04-29 16:54 | 45.40400 | 10.89791 | 247 ft | 9 kts | 315° |
| 2026-04-29 16:55 | 45.40404 | 10.89717 | 246 ft | 9 kts | 227° |
| 2026-04-29 16:55 | 45.40360 | 10.89653 | 246 ft | 11 kts | 225° |
| 2026-04-29 16:55 | 45.40286 | 10.89546 | 245 ft | 20 kts | 225° |
| 2026-04-29 16:55 | 45.40166 | 10.89371 | 243 ft | 29 kts | 225° |
| 2026-04-29 16:56 | 45.40022 | 10.89163 | 242 ft | 29 kts | 226° |
| 2026-04-29 16:56 | 45.39886 | 10.88965 | 240 ft | 28 kts | 225° |
| 2026-04-29 16:56 | 45.39756 | 10.88776 | 239 ft | 26 kts | 226° |
| 2026-04-29 16:56 | 45.39634 | 10.88598 | 237 ft | 24 kts | 225° |
| 2026-04-29 16:57 | 45.39520 | 10.88433 | 238 ft | 23 kts | 226° |
| 2026-04-29 16:57 | 45.39411 | 10.88274 | 236 ft | 22 kts | 225° |
| 2026-04-29 16:57 | 45.39305 | 10.88119 | 236 ft | 22 kts | 226° |
| 2026-04-29 16:57 | 45.39201 | 10.87969 | 232 ft | 21 kts | 225° |
| 2026-04-29 16:58 | 45.39101 | 10.87823 | 231 ft | 20 kts | 226° |
| 2026-04-29 16:58 | 45.39003 | 10.87682 | 230 ft | 20 kts | 226° |
| 2026-04-29 16:58 | 45.38912 | 10.87549 | 229 ft | 17 kts | 225° |
| 2026-04-29 16:58 | 45.38858 | 10.87495 | 229 ft | 8 kts | 172° |